<?xml version="1.0" encoding="UTF-8" standalone="no" ?>
<gpx xmlns="http://www.topografix.com/GPX/1/1" xmlns:xsi="http://www.w3.org/2001/XMLSchema-instance" xsi:schemaLocation="http://www.topografix.com/GPX/1/1 http://www.topografix.com/GPX/1/1/gpx.xsd" version="1.1" creator="VisuGPX - https://www.visugpx.com">
  <metadata>
    <name>Col des Cibières</name>
    <desc><![CDATA[Col des Cibières depuis la route du Col du Granon]]></desc>
  </metadata>
  <trk>
    <name><![CDATA[2017-01-06 11:10]]></name>
    <desc><![CDATA[<p>Heure de départ: 01/06/2017 11:10</p><p>Heure d'arrivée: 01/06/2017 14:28</p><p>Distance: 6 km (03:18)</p><p>Temps déplacement: 01:31</p><p>Vitesse moyenne: 1,8 km/h</p><p>Vitesse moyenne mouv.: 3,91 km/h</p><p>Vitesse Max.: 21,48km/h</p><p>Altitude minimale: 1987 m</p><p>Altitude maximale: 2547 m</p><p>Vitesse de montée: 248,8 m/h</p><p>Vitesse de descente: -528 m/h</p><p>Gain d'altitude: 552 m</p><p>Perte d'altitude: -539 m</p><p>Temps de montée: 02:13</p><p>Temps de descente: 01:01</p><hr align="center" width="480" style="height: 2px; width: 517px"/>]]></desc>
    <trkseg>
      <trkpt lat="44.9562" lon="6.58983">
        <ele>1987.44</ele>
        <time>2017-01-06T10:10:03Z</time>
      </trkpt>
      <trkpt lat="44.95626" lon="6.58957">
        <ele>1991.24</ele>
        <time>2017-01-06T10:11:07Z</time>
      </trkpt>
      <trkpt lat="44.95631" lon="6.58932">
        <ele>1992.4</ele>
        <time>2017-01-06T10:11:23Z</time>
      </trkpt>
      <trkpt lat="44.95635" lon="6.58906">
        <ele>1995.24</ele>
        <time>2017-01-06T10:11:40Z</time>
      </trkpt>
      <trkpt lat="44.95642" lon="6.58882">
        <ele>1997.4</ele>
        <time>2017-01-06T10:11:58Z</time>
      </trkpt>
      <trkpt lat="44.95651" lon="6.58859">
        <ele>2002.45</ele>
        <time>2017-01-06T10:12:16Z</time>
      </trkpt>
      <trkpt lat="44.95661" lon="6.58837">
        <ele>2003.28</ele>
        <time>2017-01-06T10:12:33Z</time>
      </trkpt>
      <trkpt lat="44.95672" lon="6.58816">
        <ele>2005.48</ele>
        <time>2017-01-06T10:12:53Z</time>
      </trkpt>
      <trkpt lat="44.95687" lon="6.588">
        <ele>2003.45</ele>
        <time>2017-01-06T10:13:10Z</time>
      </trkpt>
      <trkpt lat="44.95703" lon="6.58788">
        <ele>2006.4</ele>
        <time>2017-01-06T10:13:40Z</time>
      </trkpt>
      <trkpt lat="44.95721" lon="6.58783">
        <ele>2010.4</ele>
        <time>2017-01-06T10:14:01Z</time>
      </trkpt>
      <trkpt lat="44.95719" lon="6.58809">
        <ele>2013.44</ele>
        <time>2017-01-06T10:14:20Z</time>
      </trkpt>
      <trkpt lat="44.95724" lon="6.58834">
        <ele>2018.44</ele>
        <time>2017-01-06T10:14:41Z</time>
      </trkpt>
      <trkpt lat="44.95733" lon="6.58857">
        <ele>2019.44</ele>
        <time>2017-01-06T10:21:28Z</time>
      </trkpt>
      <trkpt lat="44.95737" lon="6.58882">
        <ele>2018.45</ele>
        <time>2017-01-06T10:21:47Z</time>
      </trkpt>
      <trkpt lat="44.95746" lon="6.58905">
        <ele>2018.65</ele>
        <time>2017-01-06T10:22:21Z</time>
      </trkpt>
      <trkpt lat="44.95751" lon="6.5893">
        <ele>2030.63</ele>
        <time>2017-01-06T10:22:40Z</time>
      </trkpt>
      <trkpt lat="44.95754" lon="6.58956">
        <ele>2039.24</ele>
        <time>2017-01-06T10:23:14Z</time>
      </trkpt>
      <trkpt lat="44.95762" lon="6.58981">
        <ele>2039.84</ele>
        <time>2017-01-06T10:23:32Z</time>
      </trkpt>
      <trkpt lat="44.95767" lon="6.59006">
        <ele>2039.48</ele>
        <time>2017-01-06T10:23:50Z</time>
      </trkpt>
      <trkpt lat="44.95768" lon="6.59032">
        <ele>2037.05</ele>
        <time>2017-01-06T10:24:31Z</time>
      </trkpt>
      <trkpt lat="44.95778" lon="6.59054">
        <ele>2033.41</ele>
        <time>2017-01-06T10:24:45Z</time>
      </trkpt>
      <trkpt lat="44.9578" lon="6.5908">
        <ele>2041.44</ele>
        <time>2017-01-06T10:26:26Z</time>
      </trkpt>
      <trkpt lat="44.95779" lon="6.59106">
        <ele>2043.12</ele>
        <time>2017-01-06T10:26:56Z</time>
      </trkpt>
      <trkpt lat="44.95762" lon="6.59176">
        <ele>2054.01</ele>
        <time>2017-01-06T10:28:51Z</time>
      </trkpt>
      <trkpt lat="44.95777" lon="6.5919">
        <ele>2030.14</ele>
        <time>2017-01-06T10:29:27Z</time>
      </trkpt>
      <trkpt lat="44.95779" lon="6.59217">
        <ele>2064.2</ele>
        <time>2017-01-06T10:30:22Z</time>
      </trkpt>
      <trkpt lat="44.95782" lon="6.59242">
        <ele>2066.45</ele>
        <time>2017-01-06T10:30:53Z</time>
      </trkpt>
      <trkpt lat="44.95784" lon="6.59267">
        <ele>2071.24</ele>
        <time>2017-01-06T10:31:18Z</time>
      </trkpt>
      <trkpt lat="44.95802" lon="6.59267">
        <ele>2073.2</ele>
        <time>2017-01-06T10:32:12Z</time>
      </trkpt>
      <trkpt lat="44.95815" lon="6.59287">
        <ele>2077.4</ele>
        <time>2017-01-06T10:33:14Z</time>
      </trkpt>
      <trkpt lat="44.95823" lon="6.5931">
        <ele>2087.41</ele>
        <time>2017-01-06T10:38:24Z</time>
      </trkpt>
      <trkpt lat="44.95831" lon="6.59333">
        <ele>2091.12</ele>
        <time>2017-01-06T10:39:09Z</time>
      </trkpt>
      <trkpt lat="44.95832" lon="6.5936">
        <ele>2083.49</ele>
        <time>2017-01-06T10:43:25Z</time>
      </trkpt>
      <trkpt lat="44.95844" lon="6.5938">
        <ele>2089.28</ele>
        <time>2017-01-06T10:44:37Z</time>
      </trkpt>
      <trkpt lat="44.9584" lon="6.59405">
        <ele>2094.28</ele>
        <time>2017-01-06T10:45:14Z</time>
      </trkpt>
      <trkpt lat="44.95854" lon="6.59421">
        <ele>2104.44</ele>
        <time>2017-01-06T10:50:32Z</time>
      </trkpt>
      <trkpt lat="44.95872" lon="6.59416">
        <ele>2115.41</ele>
        <time>2017-01-06T10:51:29Z</time>
      </trkpt>
      <trkpt lat="44.95884" lon="6.59435">
        <ele>2119.44</ele>
        <time>2017-01-06T10:52:18Z</time>
      </trkpt>
      <trkpt lat="44.95902" lon="6.59444">
        <ele>2120.56</ele>
        <time>2017-01-06T10:52:58Z</time>
      </trkpt>
      <trkpt lat="44.9592" lon="6.59454">
        <ele>2131.63</ele>
        <time>2017-01-06T10:53:28Z</time>
      </trkpt>
      <trkpt lat="44.95937" lon="6.59448">
        <ele>2131.4</ele>
        <time>2017-01-06T10:53:58Z</time>
      </trkpt>
      <trkpt lat="44.95953" lon="6.59462">
        <ele>2133.44</ele>
        <time>2017-01-06T10:55:07Z</time>
      </trkpt>
      <trkpt lat="44.95961" lon="6.59486">
        <ele>2144.04</ele>
        <time>2017-01-06T10:55:40Z</time>
      </trkpt>
      <trkpt lat="44.95972" lon="6.59505">
        <ele>2150.25</ele>
        <time>2017-01-06T10:57:17Z</time>
      </trkpt>
      <trkpt lat="44.95988" lon="6.59517">
        <ele>2147.45</ele>
        <time>2017-01-06T10:59:36Z</time>
      </trkpt>
      <trkpt lat="44.96004" lon="6.5953">
        <ele>2154.6</ele>
        <time>2017-01-06T10:59:57Z</time>
      </trkpt>
      <trkpt lat="44.96022" lon="6.59538">
        <ele>2157.04</ele>
        <time>2017-01-06T11:00:24Z</time>
      </trkpt>
      <trkpt lat="44.9604" lon="6.5954">
        <ele>2159.44</ele>
        <time>2017-01-06T11:00:45Z</time>
      </trkpt>
      <trkpt lat="44.96056" lon="6.59553">
        <ele>2167.84</ele>
        <time>2017-01-06T11:01:43Z</time>
      </trkpt>
      <trkpt lat="44.96074" lon="6.5955">
        <ele>2169.45</ele>
        <time>2017-01-06T11:03:43Z</time>
      </trkpt>
      <trkpt lat="44.96092" lon="6.59542">
        <ele>2174.22</ele>
        <time>2017-01-06T11:04:29Z</time>
      </trkpt>
      <trkpt lat="44.96111" lon="6.59536">
        <ele>2174.41</ele>
        <time>2017-01-06T11:04:53Z</time>
      </trkpt>
      <trkpt lat="44.96129" lon="6.59542">
        <ele>2186.44</ele>
        <time>2017-01-06T11:06:31Z</time>
      </trkpt>
      <trkpt lat="44.96149" lon="6.59541">
        <ele>2190.01</ele>
        <time>2017-01-06T11:07:21Z</time>
      </trkpt>
      <trkpt lat="44.96167" lon="6.59546">
        <ele>2196.44</ele>
        <time>2017-01-06T11:08:05Z</time>
      </trkpt>
      <trkpt lat="44.96184" lon="6.59539">
        <ele>2197.61</ele>
        <time>2017-01-06T11:11:09Z</time>
      </trkpt>
      <trkpt lat="44.96194" lon="6.59518">
        <ele>2207.41</ele>
        <time>2017-01-06T11:11:34Z</time>
      </trkpt>
      <trkpt lat="44.96208" lon="6.59501">
        <ele>2210.48</ele>
        <time>2017-01-06T11:11:59Z</time>
      </trkpt>
      <trkpt lat="44.96226" lon="6.59498">
        <ele>2213.24</ele>
        <time>2017-01-06T11:12:31Z</time>
      </trkpt>
      <trkpt lat="44.96243" lon="6.59509">
        <ele>2224.4</ele>
        <time>2017-01-06T11:13:15Z</time>
      </trkpt>
      <trkpt lat="44.96247" lon="6.59536">
        <ele>2223.68</ele>
        <time>2017-01-06T11:14:46Z</time>
      </trkpt>
      <trkpt lat="44.96262" lon="6.59551">
        <ele>2233.44</ele>
        <time>2017-01-06T11:15:38Z</time>
      </trkpt>
      <trkpt lat="44.96278" lon="6.59539">
        <ele>2238.64</ele>
        <time>2017-01-06T11:16:12Z</time>
      </trkpt>
      <trkpt lat="44.96295" lon="6.59529">
        <ele>2241.44</ele>
        <time>2017-01-06T11:16:49Z</time>
      </trkpt>
      <trkpt lat="44.96312" lon="6.5952">
        <ele>2244.45</ele>
        <time>2017-01-06T11:17:23Z</time>
      </trkpt>
      <trkpt lat="44.9633" lon="6.59516">
        <ele>2244.6</ele>
        <time>2017-01-06T11:17:54Z</time>
      </trkpt>
      <trkpt lat="44.96349" lon="6.59517">
        <ele>2243.28</ele>
        <time>2017-01-06T11:18:34Z</time>
      </trkpt>
      <trkpt lat="44.96367" lon="6.59514">
        <ele>2239.89</ele>
        <time>2017-01-06T11:19:11Z</time>
      </trkpt>
      <trkpt lat="44.96385" lon="6.59517">
        <ele>2253.72</ele>
        <time>2017-01-06T11:19:49Z</time>
      </trkpt>
      <trkpt lat="44.96402" lon="6.59526">
        <ele>2258.48</ele>
        <time>2017-01-06T11:20:25Z</time>
      </trkpt>
      <trkpt lat="44.9642" lon="6.59521">
        <ele>2258.68</ele>
        <time>2017-01-06T11:20:57Z</time>
      </trkpt>
      <trkpt lat="44.9644" lon="6.59517">
        <ele>2260.39</ele>
        <time>2017-01-06T11:21:43Z</time>
      </trkpt>
      <trkpt lat="44.96457" lon="6.59507">
        <ele>2255.24</ele>
        <time>2017-01-06T11:22:30Z</time>
      </trkpt>
      <trkpt lat="44.96475" lon="6.59511">
        <ele>2268.64</ele>
        <time>2017-01-06T11:24:07Z</time>
      </trkpt>
      <trkpt lat="44.96481" lon="6.59535">
        <ele>2274.44</ele>
        <time>2017-01-06T11:24:49Z</time>
      </trkpt>
      <trkpt lat="44.96497" lon="6.59549">
        <ele>2278.41</ele>
        <time>2017-01-06T11:25:29Z</time>
      </trkpt>
      <trkpt lat="44.96511" lon="6.59566">
        <ele>2279.45</ele>
        <time>2017-01-06T11:25:58Z</time>
      </trkpt>
      <trkpt lat="44.96522" lon="6.59586">
        <ele>2286.25</ele>
        <time>2017-01-06T11:26:36Z</time>
      </trkpt>
      <trkpt lat="44.96541" lon="6.59587">
        <ele>2291.65</ele>
        <time>2017-01-06T11:27:17Z</time>
      </trkpt>
      <trkpt lat="44.96546" lon="6.59563">
        <ele>2301.64</ele>
        <time>2017-01-06T11:28:05Z</time>
      </trkpt>
      <trkpt lat="44.96565" lon="6.59561">
        <ele>2298.48</ele>
        <time>2017-01-06T11:28:49Z</time>
      </trkpt>
      <trkpt lat="44.96578" lon="6.59579">
        <ele>2304.45</ele>
        <time>2017-01-06T11:30:10Z</time>
      </trkpt>
      <trkpt lat="44.96577" lon="6.59605">
        <ele>2312.24</ele>
        <time>2017-01-06T11:30:57Z</time>
      </trkpt>
      <trkpt lat="44.96576" lon="6.5963">
        <ele>2314.25</ele>
        <time>2017-01-06T11:31:42Z</time>
      </trkpt>
      <trkpt lat="44.96576" lon="6.59656">
        <ele>2319.24</ele>
        <time>2017-01-06T11:32:18Z</time>
      </trkpt>
      <trkpt lat="44.96573" lon="6.59681">
        <ele>2325.41</ele>
        <time>2017-01-06T11:33:04Z</time>
      </trkpt>
      <trkpt lat="44.96592" lon="6.59679">
        <ele>2331.65</ele>
        <time>2017-01-06T11:34:05Z</time>
      </trkpt>
      <trkpt lat="44.96601" lon="6.597">
        <ele>2336.41</ele>
        <time>2017-01-06T11:34:50Z</time>
      </trkpt>
      <trkpt lat="44.9661" lon="6.59723">
        <ele>2340.45</ele>
        <time>2017-01-06T11:35:37Z</time>
      </trkpt>
      <trkpt lat="44.96628" lon="6.59732">
        <ele>2349.44</ele>
        <time>2017-01-06T11:36:28Z</time>
      </trkpt>
      <trkpt lat="44.96645" lon="6.59738">
        <ele>2349.44</ele>
        <time>2017-01-06T11:37:09Z</time>
      </trkpt>
      <trkpt lat="44.96649" lon="6.59763">
        <ele>2352.45</ele>
        <time>2017-01-06T11:47:34Z</time>
      </trkpt>
      <trkpt lat="44.96659" lon="6.59784">
        <ele>2360.44</ele>
        <time>2017-01-06T11:48:28Z</time>
      </trkpt>
      <trkpt lat="44.96665" lon="6.59809">
        <ele>2370.25</ele>
        <time>2017-01-06T11:50:31Z</time>
      </trkpt>
      <trkpt lat="44.96683" lon="6.59818">
        <ele>2380.24</ele>
        <time>2017-01-06T11:51:57Z</time>
      </trkpt>
      <trkpt lat="44.96701" lon="6.59822">
        <ele>2387.21</ele>
        <time>2017-01-06T11:52:31Z</time>
      </trkpt>
      <trkpt lat="44.96718" lon="6.59834">
        <ele>2394.24</ele>
        <time>2017-01-06T11:53:04Z</time>
      </trkpt>
      <trkpt lat="44.96732" lon="6.5985">
        <ele>2396.44</ele>
        <time>2017-01-06T11:53:37Z</time>
      </trkpt>
      <trkpt lat="44.96745" lon="6.59869">
        <ele>2396.41</ele>
        <time>2017-01-06T11:54:33Z</time>
      </trkpt>
      <trkpt lat="44.96756" lon="6.5989">
        <ele>2398.44</ele>
        <time>2017-01-06T11:54:59Z</time>
      </trkpt>
      <trkpt lat="44.96763" lon="6.59913">
        <ele>2401.45</ele>
        <time>2017-01-06T11:55:40Z</time>
      </trkpt>
      <trkpt lat="44.96766" lon="6.59939">
        <ele>2405.44</ele>
        <time>2017-01-06T11:56:14Z</time>
      </trkpt>
      <trkpt lat="44.96773" lon="6.59962">
        <ele>2412.44</ele>
        <time>2017-01-06T11:56:53Z</time>
      </trkpt>
      <trkpt lat="44.96786" lon="6.59981">
        <ele>2414.65</ele>
        <time>2017-01-06T11:57:30Z</time>
      </trkpt>
      <trkpt lat="44.968" lon="6.59997">
        <ele>2419.41</ele>
        <time>2017-01-06T11:58:24Z</time>
      </trkpt>
      <trkpt lat="44.96819" lon="6.6">
        <ele>2428.44</ele>
        <time>2017-01-06T11:59:19Z</time>
      </trkpt>
      <trkpt lat="44.96837" lon="6.59996">
        <ele>2435.88</ele>
        <time>2017-01-06T12:00:06Z</time>
      </trkpt>
      <trkpt lat="44.96849" lon="6.60016">
        <ele>2443.04</ele>
        <time>2017-01-06T12:01:24Z</time>
      </trkpt>
      <trkpt lat="44.96865" lon="6.60028">
        <ele>2452.44</ele>
        <time>2017-01-06T12:06:13Z</time>
      </trkpt>
      <trkpt lat="44.9688" lon="6.60041">
        <ele>2459.68</ele>
        <time>2017-01-06T12:07:29Z</time>
      </trkpt>
      <trkpt lat="44.96884" lon="6.60066">
        <ele>2464.44</ele>
        <time>2017-01-06T12:08:19Z</time>
      </trkpt>
      <trkpt lat="44.96895" lon="6.60088">
        <ele>2472.4</ele>
        <time>2017-01-06T12:09:11Z</time>
      </trkpt>
      <trkpt lat="44.96913" lon="6.60087">
        <ele>2477.45</ele>
        <time>2017-01-06T12:10:09Z</time>
      </trkpt>
      <trkpt lat="44.96932" lon="6.60086">
        <ele>2483.02</ele>
        <time>2017-01-06T12:10:31Z</time>
      </trkpt>
      <trkpt lat="44.96949" lon="6.60094">
        <ele>2480.25</ele>
        <time>2017-01-06T12:13:56Z</time>
      </trkpt>
      <trkpt lat="44.96968" lon="6.60096">
        <ele>2487.44</ele>
        <time>2017-01-06T12:14:28Z</time>
      </trkpt>
      <trkpt lat="44.96985" lon="6.60103">
        <ele>2490.41</ele>
        <time>2017-01-06T12:14:58Z</time>
      </trkpt>
      <trkpt lat="44.97004" lon="6.601">
        <ele>2500.24</ele>
        <time>2017-01-06T12:15:30Z</time>
      </trkpt>
      <trkpt lat="44.97018" lon="6.60116">
        <ele>2501.25</ele>
        <time>2017-01-06T12:16:45Z</time>
      </trkpt>
      <trkpt lat="44.97024" lon="6.60141">
        <ele>2507.48</ele>
        <time>2017-01-06T12:17:25Z</time>
      </trkpt>
      <trkpt lat="44.97032" lon="6.60165">
        <ele>2512.28</ele>
        <time>2017-01-06T12:18:10Z</time>
      </trkpt>
      <trkpt lat="44.97051" lon="6.60165">
        <ele>2522.25</ele>
        <time>2017-01-06T12:19:15Z</time>
      </trkpt>
      <trkpt lat="44.97056" lon="6.6019">
        <ele>2527.37</ele>
        <time>2017-01-06T12:21:07Z</time>
      </trkpt>
      <trkpt lat="44.97074" lon="6.60194">
        <ele>2527.24</ele>
        <time>2017-01-06T12:21:44Z</time>
      </trkpt>
      <trkpt lat="44.97092" lon="6.6019">
        <ele>2530.64</ele>
        <time>2017-01-06T12:22:16Z</time>
      </trkpt>
      <trkpt lat="44.97102" lon="6.60168">
        <ele>2540.08</ele>
        <time>2017-01-06T12:22:40Z</time>
      </trkpt>
      <trkpt lat="44.97114" lon="6.6015">
        <ele>2539.6</ele>
        <time>2017-01-06T12:23:12Z</time>
      </trkpt>
      <trkpt lat="44.97131" lon="6.6014">
        <ele>2541.45</ele>
        <time>2017-01-06T12:24:41Z</time>
      </trkpt>
      <trkpt lat="44.97119" lon="6.60121">
        <ele>2537.61</ele>
        <time>2017-01-06T12:25:45Z</time>
      </trkpt>
      <trkpt lat="44.97129" lon="6.60101">
        <ele>2544.44</ele>
        <time>2017-01-06T12:26:15Z</time>
      </trkpt>
      <trkpt lat="44.97135" lon="6.60077">
        <ele>2547.44</ele>
        <time>2017-01-06T12:31:29Z</time>
      </trkpt>
      <trkpt lat="44.97137" lon="6.60102">
        <ele>2544.33</ele>
        <time>2017-01-06T12:38:05Z</time>
      </trkpt>
      <trkpt lat="44.97123" lon="6.60119">
        <ele>2538.29</ele>
        <time>2017-01-06T12:38:17Z</time>
      </trkpt>
      <trkpt lat="44.97111" lon="6.60138">
        <ele>2534.45</ele>
        <time>2017-01-06T12:43:56Z</time>
      </trkpt>
      <trkpt lat="44.97102" lon="6.6016">
        <ele>2537.64</ele>
        <time>2017-01-06T12:49:16Z</time>
      </trkpt>
      <trkpt lat="44.97089" lon="6.60178">
        <ele>2538.45</ele>
        <time>2017-01-06T12:49:32Z</time>
      </trkpt>
      <trkpt lat="44.97067" lon="6.60177">
        <ele>2533.61</ele>
        <time>2017-01-06T12:50:10Z</time>
      </trkpt>
      <trkpt lat="44.97048" lon="6.60171">
        <ele>2521.95</ele>
        <time>2017-01-06T12:50:17Z</time>
      </trkpt>
      <trkpt lat="44.97042" lon="6.60144">
        <ele>2517.69</ele>
        <time>2017-01-06T12:50:23Z</time>
      </trkpt>
      <trkpt lat="44.97027" lon="6.60158">
        <ele>2506.84</ele>
        <time>2017-01-06T12:51:35Z</time>
      </trkpt>
      <trkpt lat="44.9702" lon="6.60133">
        <ele>2499.74</ele>
        <time>2017-01-06T12:51:48Z</time>
      </trkpt>
      <trkpt lat="44.97003" lon="6.6012">
        <ele>2491.5</ele>
        <time>2017-01-06T12:51:57Z</time>
      </trkpt>
      <trkpt lat="44.96983" lon="6.60116">
        <ele>2486.84</ele>
        <time>2017-01-06T12:52:05Z</time>
      </trkpt>
      <trkpt lat="44.96966" lon="6.60106">
        <ele>2484.45</ele>
        <time>2017-01-06T12:52:21Z</time>
      </trkpt>
      <trkpt lat="44.96947" lon="6.60102">
        <ele>2478.89</ele>
        <time>2017-01-06T12:52:29Z</time>
      </trkpt>
      <trkpt lat="44.96928" lon="6.60097">
        <ele>2474.73</ele>
        <time>2017-01-06T12:52:34Z</time>
      </trkpt>
      <trkpt lat="44.9692" lon="6.60121">
        <ele>2471.53</ele>
        <time>2017-01-06T12:52:40Z</time>
      </trkpt>
      <trkpt lat="44.96903" lon="6.60104">
        <ele>2470.48</ele>
        <time>2017-01-06T12:52:46Z</time>
      </trkpt>
      <trkpt lat="44.9688" lon="6.601">
        <ele>2466.78</ele>
        <time>2017-01-06T12:52:52Z</time>
      </trkpt>
      <trkpt lat="44.9686" lon="6.60091">
        <ele>2458.7</ele>
        <time>2017-01-06T12:52:58Z</time>
      </trkpt>
      <trkpt lat="44.96842" lon="6.60086">
        <ele>2455.46</ele>
        <time>2017-01-06T12:53:05Z</time>
      </trkpt>
      <trkpt lat="44.96852" lon="6.6006">
        <ele>2454.45</ele>
        <time>2017-01-06T12:54:01Z</time>
      </trkpt>
      <trkpt lat="44.96864" lon="6.60035">
        <ele>2452.65</ele>
        <time>2017-01-06T12:54:08Z</time>
      </trkpt>
      <trkpt lat="44.96847" lon="6.60025">
        <ele>2447.46</ele>
        <time>2017-01-06T12:54:14Z</time>
      </trkpt>
      <trkpt lat="44.9685" lon="6.59998">
        <ele>2445.49</ele>
        <time>2017-01-06T12:54:18Z</time>
      </trkpt>
      <trkpt lat="44.96831" lon="6.59987">
        <ele>2437.97</ele>
        <time>2017-01-06T12:54:25Z</time>
      </trkpt>
      <trkpt lat="44.96812" lon="6.59991">
        <ele>2429.93</ele>
        <time>2017-01-06T12:54:33Z</time>
      </trkpt>
      <trkpt lat="44.96793" lon="6.59999">
        <ele>2421.67</ele>
        <time>2017-01-06T12:54:39Z</time>
      </trkpt>
      <trkpt lat="44.96784" lon="6.59972">
        <ele>2418.69</ele>
        <time>2017-01-06T12:55:04Z</time>
      </trkpt>
      <trkpt lat="44.96778" lon="6.59944">
        <ele>2417.65</ele>
        <time>2017-01-06T12:55:09Z</time>
      </trkpt>
      <trkpt lat="44.96759" lon="6.59936">
        <ele>2406.95</ele>
        <time>2017-01-06T12:55:16Z</time>
      </trkpt>
      <trkpt lat="44.96739" lon="6.59927">
        <ele>2401.49</ele>
        <time>2017-01-06T12:55:25Z</time>
      </trkpt>
      <trkpt lat="44.96733" lon="6.599">
        <ele>2399.29</ele>
        <time>2017-01-06T12:55:29Z</time>
      </trkpt>
      <trkpt lat="44.96719" lon="6.59881">
        <ele>2395.49</ele>
        <time>2017-01-06T12:55:35Z</time>
      </trkpt>
      <trkpt lat="44.96705" lon="6.59865">
        <ele>2378.69</ele>
        <time>2017-01-06T12:59:45Z</time>
      </trkpt>
      <trkpt lat="44.96692" lon="6.59843">
        <ele>2377.45</ele>
        <time>2017-01-06T12:59:49Z</time>
      </trkpt>
      <trkpt lat="44.96675" lon="6.5983">
        <ele>2373.53</ele>
        <time>2017-01-06T12:59:54Z</time>
      </trkpt>
      <trkpt lat="44.96657" lon="6.59817">
        <ele>2367.46</ele>
        <time>2017-01-06T13:00:58Z</time>
      </trkpt>
      <trkpt lat="44.96667" lon="6.59788">
        <ele>2365.45</ele>
        <time>2017-01-06T13:01:04Z</time>
      </trkpt>
      <trkpt lat="44.96651" lon="6.59768">
        <ele>2354.9</ele>
        <time>2017-01-06T13:01:13Z</time>
      </trkpt>
      <trkpt lat="44.96636" lon="6.59753">
        <ele>2352.04</ele>
        <time>2017-01-06T13:01:19Z</time>
      </trkpt>
      <trkpt lat="44.96613" lon="6.5976">
        <ele>2343.7</ele>
        <time>2017-01-06T13:01:25Z</time>
      </trkpt>
      <trkpt lat="44.96599" lon="6.59736">
        <ele>2338.73</ele>
        <time>2017-01-06T13:01:31Z</time>
      </trkpt>
      <trkpt lat="44.96595" lon="6.59711">
        <ele>2333.45</ele>
        <time>2017-01-06T13:01:41Z</time>
      </trkpt>
      <trkpt lat="44.96597" lon="6.59685">
        <ele>2330.49</ele>
        <time>2017-01-06T13:02:03Z</time>
      </trkpt>
      <trkpt lat="44.96605" lon="6.59659">
        <ele>2324.49</ele>
        <time>2017-01-06T13:02:10Z</time>
      </trkpt>
      <trkpt lat="44.96605" lon="6.59629">
        <ele>2324.28</ele>
        <time>2017-01-06T13:02:15Z</time>
      </trkpt>
      <trkpt lat="44.96588" lon="6.59624">
        <ele>2322.49</ele>
        <time>2017-01-06T13:02:18Z</time>
      </trkpt>
      <trkpt lat="44.96576" lon="6.596">
        <ele>2317.58</ele>
        <time>2017-01-06T13:02:22Z</time>
      </trkpt>
      <trkpt lat="44.96577" lon="6.59575">
        <ele>2313.89</ele>
        <time>2017-01-06T13:02:29Z</time>
      </trkpt>
      <trkpt lat="44.96565" lon="6.5955">
        <ele>2304.74</ele>
        <time>2017-01-06T13:02:34Z</time>
      </trkpt>
      <trkpt lat="44.96575" lon="6.59522">
        <ele>2298.62</ele>
        <time>2017-01-06T13:03:08Z</time>
      </trkpt>
      <trkpt lat="44.96583" lon="6.59496">
        <ele>2295.09</ele>
        <time>2017-01-06T13:03:12Z</time>
      </trkpt>
      <trkpt lat="44.96565" lon="6.59478">
        <ele>2286.78</ele>
        <time>2017-01-06T13:03:17Z</time>
      </trkpt>
      <trkpt lat="44.96559" lon="6.5945">
        <ele>2283.85</ele>
        <time>2017-01-06T13:03:21Z</time>
      </trkpt>
      <trkpt lat="44.96542" lon="6.59439">
        <ele>2277.67</ele>
        <time>2017-01-06T13:03:25Z</time>
      </trkpt>
      <trkpt lat="44.96547" lon="6.59411">
        <ele>2276.49</ele>
        <time>2017-01-06T13:03:29Z</time>
      </trkpt>
      <trkpt lat="44.96537" lon="6.59381">
        <ele>2270.66</ele>
        <time>2017-01-06T13:03:34Z</time>
      </trkpt>
      <trkpt lat="44.9654" lon="6.59351">
        <ele>2265.9</ele>
        <time>2017-01-06T13:03:38Z</time>
      </trkpt>
      <trkpt lat="44.96535" lon="6.59326">
        <ele>2263.5</ele>
        <time>2017-01-06T13:03:41Z</time>
      </trkpt>
      <trkpt lat="44.96529" lon="6.593">
        <ele>2258.69</ele>
        <time>2017-01-06T13:03:45Z</time>
      </trkpt>
      <trkpt lat="44.96516" lon="6.59278">
        <ele>2247.06</ele>
        <time>2017-01-06T13:03:51Z</time>
      </trkpt>
      <trkpt lat="44.96507" lon="6.59257">
        <ele>2242.45</ele>
        <time>2017-01-06T13:03:57Z</time>
      </trkpt>
      <trkpt lat="44.96486" lon="6.59256">
        <ele>2239.49</ele>
        <time>2017-01-06T13:04:02Z</time>
      </trkpt>
      <trkpt lat="44.96495" lon="6.59231">
        <ele>2234.69</ele>
        <time>2017-01-06T13:04:09Z</time>
      </trkpt>
      <trkpt lat="44.96497" lon="6.59206">
        <ele>2232.65</ele>
        <time>2017-01-06T13:04:37Z</time>
      </trkpt>
      <trkpt lat="44.96498" lon="6.59178">
        <ele>2230.32</ele>
        <time>2017-01-06T13:04:42Z</time>
      </trkpt>
      <trkpt lat="44.96504" lon="6.59154">
        <ele>2231.44</ele>
        <time>2017-01-06T13:05:36Z</time>
      </trkpt>
      <trkpt lat="44.96506" lon="6.59128">
        <ele>2226.64</ele>
        <time>2017-01-06T13:06:13Z</time>
      </trkpt>
      <trkpt lat="44.96496" lon="6.59105">
        <ele>2219.49</ele>
        <time>2017-01-06T13:06:24Z</time>
      </trkpt>
      <trkpt lat="44.96482" lon="6.59087">
        <ele>2215.69</ele>
        <time>2017-01-06T13:06:31Z</time>
      </trkpt>
      <trkpt lat="44.9647" lon="6.59064">
        <ele>2209.5</ele>
        <time>2017-01-06T13:06:37Z</time>
      </trkpt>
      <trkpt lat="44.96451" lon="6.59054">
        <ele>2205.49</ele>
        <time>2017-01-06T13:06:43Z</time>
      </trkpt>
      <trkpt lat="44.96452" lon="6.59028">
        <ele>2204.61</ele>
        <time>2017-01-06T13:06:47Z</time>
      </trkpt>
      <trkpt lat="44.96441" lon="6.59007">
        <ele>2200.64</ele>
        <time>2017-01-06T13:06:57Z</time>
      </trkpt>
      <trkpt lat="44.9645" lon="6.58983">
        <ele>2197.46</ele>
        <time>2017-01-06T13:07:05Z</time>
      </trkpt>
      <trkpt lat="44.96434" lon="6.58966">
        <ele>2193.69</ele>
        <time>2017-01-06T13:07:12Z</time>
      </trkpt>
      <trkpt lat="44.96432" lon="6.58939">
        <ele>2189.66</ele>
        <time>2017-01-06T13:07:17Z</time>
      </trkpt>
      <trkpt lat="44.96431" lon="6.58911">
        <ele>2184.53</ele>
        <time>2017-01-06T13:07:22Z</time>
      </trkpt>
      <trkpt lat="44.96426" lon="6.58886">
        <ele>2182.85</ele>
        <time>2017-01-06T13:07:26Z</time>
      </trkpt>
      <trkpt lat="44.96435" lon="6.58858">
        <ele>2182.81</ele>
        <time>2017-01-06T13:07:32Z</time>
      </trkpt>
      <trkpt lat="44.96421" lon="6.58834">
        <ele>2180.89</ele>
        <time>2017-01-06T13:07:39Z</time>
      </trkpt>
      <trkpt lat="44.96416" lon="6.58808">
        <ele>2178.43</ele>
        <time>2017-01-06T13:08:09Z</time>
      </trkpt>
      <trkpt lat="44.96413" lon="6.58779">
        <ele>2164.82</ele>
        <time>2017-01-06T13:08:40Z</time>
      </trkpt>
      <trkpt lat="44.96398" lon="6.58766">
        <ele>2160.46</ele>
        <time>2017-01-06T13:08:45Z</time>
      </trkpt>
      <trkpt lat="44.96385" lon="6.58745">
        <ele>2156.53</ele>
        <time>2017-01-06T13:08:50Z</time>
      </trkpt>
      <trkpt lat="44.96376" lon="6.58722">
        <ele>2150.7</ele>
        <time>2017-01-06T13:08:55Z</time>
      </trkpt>
      <trkpt lat="44.96375" lon="6.58692">
        <ele>2148.72</ele>
        <time>2017-01-06T13:09:00Z</time>
      </trkpt>
      <trkpt lat="44.96356" lon="6.58681">
        <ele>2146.49</ele>
        <time>2017-01-06T13:09:05Z</time>
      </trkpt>
      <trkpt lat="44.96337" lon="6.58678">
        <ele>2143.73</ele>
        <time>2017-01-06T13:09:10Z</time>
      </trkpt>
      <trkpt lat="44.96324" lon="6.5866">
        <ele>2141.48</ele>
        <time>2017-01-06T13:09:37Z</time>
      </trkpt>
      <trkpt lat="44.96324" lon="6.58631">
        <ele>2135.49</ele>
        <time>2017-01-06T13:09:59Z</time>
      </trkpt>
      <trkpt lat="44.96308" lon="6.58613">
        <ele>2129.3</ele>
        <time>2017-01-06T13:10:06Z</time>
      </trkpt>
      <trkpt lat="44.96319" lon="6.58592">
        <ele>2121.45</ele>
        <time>2017-01-06T13:10:32Z</time>
      </trkpt>
      <trkpt lat="44.96333" lon="6.58575">
        <ele>2119.65</ele>
        <time>2017-01-06T13:10:44Z</time>
      </trkpt>
      <trkpt lat="44.96315" lon="6.58581">
        <ele>2116.65</ele>
        <time>2017-01-06T13:10:59Z</time>
      </trkpt>
      <trkpt lat="44.96296" lon="6.58588">
        <ele>2114.3</ele>
        <time>2017-01-06T13:11:09Z</time>
      </trkpt>
      <trkpt lat="44.96277" lon="6.58597">
        <ele>2109.44</ele>
        <time>2017-01-06T13:11:19Z</time>
      </trkpt>
      <trkpt lat="44.9626" lon="6.58612">
        <ele>2104.89</ele>
        <time>2017-01-06T13:11:26Z</time>
      </trkpt>
      <trkpt lat="44.96244" lon="6.58625">
        <ele>2105.41</ele>
        <time>2017-01-06T13:11:31Z</time>
      </trkpt>
      <trkpt lat="44.96228" lon="6.58638">
        <ele>2104.29</ele>
        <time>2017-01-06T13:11:36Z</time>
      </trkpt>
      <trkpt lat="44.96208" lon="6.58648">
        <ele>2096.69</ele>
        <time>2017-01-06T13:11:41Z</time>
      </trkpt>
      <trkpt lat="44.96191" lon="6.58657">
        <ele>2101.07</ele>
        <time>2017-01-06T13:11:45Z</time>
      </trkpt>
      <trkpt lat="44.96176" lon="6.58677">
        <ele>2102.63</ele>
        <time>2017-01-06T13:11:50Z</time>
      </trkpt>
      <trkpt lat="44.96157" lon="6.58676">
        <ele>2099.85</ele>
        <time>2017-01-06T13:11:55Z</time>
      </trkpt>
      <trkpt lat="44.96143" lon="6.58693">
        <ele>2097.41</ele>
        <time>2017-01-06T13:12:02Z</time>
      </trkpt>
      <trkpt lat="44.96137" lon="6.58721">
        <ele>2094.69</ele>
        <time>2017-01-06T13:12:07Z</time>
      </trkpt>
      <trkpt lat="44.96147" lon="6.58746">
        <ele>2093.48</ele>
        <time>2017-01-06T13:12:13Z</time>
      </trkpt>
      <trkpt lat="44.96129" lon="6.58757">
        <ele>2090.65</ele>
        <time>2017-01-06T13:12:19Z</time>
      </trkpt>
      <trkpt lat="44.96111" lon="6.58743">
        <ele>2088.45</ele>
        <time>2017-01-06T13:12:28Z</time>
      </trkpt>
      <trkpt lat="44.961" lon="6.58719">
        <ele>2087.49</ele>
        <time>2017-01-06T13:12:33Z</time>
      </trkpt>
      <trkpt lat="44.96095" lon="6.58691">
        <ele>2083.66</ele>
        <time>2017-01-06T13:12:38Z</time>
      </trkpt>
      <trkpt lat="44.96098" lon="6.58665">
        <ele>2082.29</ele>
        <time>2017-01-06T13:12:43Z</time>
      </trkpt>
      <trkpt lat="44.96092" lon="6.58639">
        <ele>2078.49</ele>
        <time>2017-01-06T13:12:50Z</time>
      </trkpt>
      <trkpt lat="44.96073" lon="6.58633">
        <ele>2079.6</ele>
        <time>2017-01-06T13:13:01Z</time>
      </trkpt>
      <trkpt lat="44.96064" lon="6.5861">
        <ele>2070.73</ele>
        <time>2017-01-06T13:13:11Z</time>
      </trkpt>
      <trkpt lat="44.96052" lon="6.58629">
        <ele>2070.28</ele>
        <time>2017-01-06T13:13:19Z</time>
      </trkpt>
      <trkpt lat="44.96061" lon="6.58652">
        <ele>2069.45</ele>
        <time>2017-01-06T13:13:49Z</time>
      </trkpt>
      <trkpt lat="44.96046" lon="6.58672">
        <ele>2070.4</ele>
        <time>2017-01-06T13:13:54Z</time>
      </trkpt>
      <trkpt lat="44.96032" lon="6.58689">
        <ele>2068.64</ele>
        <time>2017-01-06T13:13:59Z</time>
      </trkpt>
      <trkpt lat="44.96039" lon="6.58717">
        <ele>2067.28</ele>
        <time>2017-01-06T13:14:04Z</time>
      </trkpt>
      <trkpt lat="44.96042" lon="6.58742">
        <ele>2065.49</ele>
        <time>2017-01-06T13:14:08Z</time>
      </trkpt>
      <trkpt lat="44.9604" lon="6.58768">
        <ele>2062.85</ele>
        <time>2017-01-06T13:14:12Z</time>
      </trkpt>
      <trkpt lat="44.96032" lon="6.58792">
        <ele>2063.41</ele>
        <time>2017-01-06T13:14:16Z</time>
      </trkpt>
      <trkpt lat="44.96019" lon="6.58816">
        <ele>2061.69</ele>
        <time>2017-01-06T13:14:20Z</time>
      </trkpt>
      <trkpt lat="44.96006" lon="6.5884">
        <ele>2059.49</ele>
        <time>2017-01-06T13:14:24Z</time>
      </trkpt>
      <trkpt lat="44.95993" lon="6.58861">
        <ele>2055.73</ele>
        <time>2017-01-06T13:14:29Z</time>
      </trkpt>
      <trkpt lat="44.95973" lon="6.58865">
        <ele>2052.66</ele>
        <time>2017-01-06T13:14:33Z</time>
      </trkpt>
      <trkpt lat="44.95955" lon="6.58869">
        <ele>2051.29</ele>
        <time>2017-01-06T13:14:37Z</time>
      </trkpt>
      <trkpt lat="44.95937" lon="6.58875">
        <ele>2048.65</ele>
        <time>2017-01-06T13:15:15Z</time>
      </trkpt>
      <trkpt lat="44.95919" lon="6.58885">
        <ele>2045.5</ele>
        <time>2017-01-06T13:15:20Z</time>
      </trkpt>
      <trkpt lat="44.95899" lon="6.5889">
        <ele>2046.44</ele>
        <time>2017-01-06T13:15:25Z</time>
      </trkpt>
      <trkpt lat="44.9588" lon="6.58889">
        <ele>2043.65</ele>
        <time>2017-01-06T13:15:32Z</time>
      </trkpt>
      <trkpt lat="44.95861" lon="6.58893">
        <ele>2043.45</ele>
        <time>2017-01-06T13:15:38Z</time>
      </trkpt>
      <trkpt lat="44.95843" lon="6.58898">
        <ele>2044.24</ele>
        <time>2017-01-06T13:15:44Z</time>
      </trkpt>
      <trkpt lat="44.95827" lon="6.5891">
        <ele>2044.41</ele>
        <time>2017-01-06T13:15:51Z</time>
      </trkpt>
      <trkpt lat="44.95815" lon="6.58931">
        <ele>2041.69</ele>
        <time>2017-01-06T13:15:57Z</time>
      </trkpt>
      <trkpt lat="44.95799" lon="6.58947">
        <ele>2039.53</ele>
        <time>2017-01-06T13:16:03Z</time>
      </trkpt>
      <trkpt lat="44.95783" lon="6.58961">
        <ele>2038.45</ele>
        <time>2017-01-06T13:16:07Z</time>
      </trkpt>
      <trkpt lat="44.95768" lon="6.58976">
        <ele>2036.65</ele>
        <time>2017-01-06T13:16:12Z</time>
      </trkpt>
      <trkpt lat="44.95751" lon="6.58988">
        <ele>2035.65</ele>
        <time>2017-01-06T13:16:17Z</time>
      </trkpt>
      <trkpt lat="44.95735" lon="6.59003">
        <ele>2033.21</ele>
        <time>2017-01-06T13:16:24Z</time>
      </trkpt>
      <trkpt lat="44.95724" lon="6.59023">
        <ele>2031.65</ele>
        <time>2017-01-06T13:16:40Z</time>
      </trkpt>
      <trkpt lat="44.95706" lon="6.59016">
        <ele>2028.48</ele>
        <time>2017-01-06T13:16:53Z</time>
      </trkpt>
      <trkpt lat="44.957" lon="6.5904">
        <ele>2026.25</ele>
        <time>2017-01-06T13:19:17Z</time>
      </trkpt>
      <trkpt lat="44.95682" lon="6.59033">
        <ele>2018.65</ele>
        <time>2017-01-06T13:23:32Z</time>
      </trkpt>
      <trkpt lat="44.95672" lon="6.59011">
        <ele>2014.45</ele>
        <time>2017-01-06T13:23:50Z</time>
      </trkpt>
      <trkpt lat="44.95661" lon="6.5899">
        <ele>2010.44</ele>
        <time>2017-01-06T13:24:21Z</time>
      </trkpt>
      <trkpt lat="44.95643" lon="6.58985">
        <ele>2000.49</ele>
        <time>2017-01-06T13:24:54Z</time>
      </trkpt>
      <trkpt lat="44.95624" lon="6.58984">
        <ele>1988.44</ele>
        <time>2017-01-06T13:28:35Z</time>
      </trkpt>
    </trkseg>
  </trk>
</gpx>